sensor_id;sensor_type;location;lat;lon;timestamp;temperature;humidity
21108;DHT22;10712;52.944;9.098;2023-09-30T00:02:15;13.80;88.30
21108;DHT22;10712;52.944;9.098;2023-09-30T00:04:41;13.80;88.20
21108;DHT22;10712;52.944;9.098;2023-09-30T00:07:07;13.80;88.30
21108;DHT22;10712;52.944;9.098;2023-09-30T00:09:33;13.70;88.10
21108;DHT22;10712;52.944;9.098;2023-09-30T00:11:59;13.70;88.30
21108;DHT22;10712;52.944;9.098;2023-09-30T00:14:25;13.70;88.40
21108;DHT22;10712;52.944;9.098;2023-09-30T00:16:51;13.70;88.60
21108;DHT22;10712;52.944;9.098;2023-09-30T00:19:17;13.60;88.30
21108;DHT22;10712;52.944;9.098;2023-09-30T00:21:43;13.60;88.40
21108;DHT22;10712;52.944;9.098;2023-09-30T00:24:08;13.60;88.60
21108;DHT22;10712;52.944;9.098;2023-09-30T00:26:35;13.60;88.70
21108;DHT22;10712;52.944;9.098;2023-09-30T00:29:01;13.60;88.80
21108;DHT22;10712;52.944;9.098;2023-09-30T00:31:30;13.60;88.80
21108;DHT22;10712;52.944;9.098;2023-09-30T00:33:57;13.60;88.70
21108;DHT22;10712;52.944;9.098;2023-09-30T00:36:24;13.50;88.70
21108;DHT22;10712;52.944;9.098;2023-09-30T00:38:50;13.50;88.80
21108;DHT22;10712;52.944;9.098;2023-09-30T00:41:15;13.50;88.80
21108;DHT22;10712;52.944;9.098;2023-09-30T00:43:41;13.50;89.00
21108;DHT22;10712;52.944;9.098;2023-09-30T00:46:28;13.50;88.80
21108;DHT22;10712;52.944;9.098;2023-09-30T00:48:57;13.50;89.00
21108;DHT22;10712;52.944;9.098;2023-09-30T00:51:25;13.50;88.90
21108;DHT22;10712;52.944;9.098;2023-09-30T00:53:53;13.50;88.90
21108;DHT22;10712;52.944;9.098;2023-09-30T00:56:23;13.50;88.90
21108;DHT22;10712;52.944;9.098;2023-09-30T00:58:52;13.50;88.90
21108;DHT22;10712;52.944;9.098;2023-09-30T01:01:20;13.50;88.70
21108;DHT22;10712;52.944;9.098;2023-09-30T01:03:47;13.40;88.90
21108;DHT22;10712;52.944;9.098;2023-09-30T01:06:13;13.40;89.00
21108;DHT22;10712;52.944;9.098;2023-09-30T01:08:39;13.40;89.00
21108;DHT22;10712;52.944;9.098;2023-09-30T01:11:06;13.30;88.80
21108;DHT22;10712;52.944;9.098;2023-09-30T01:13:33;13.30;89.00
21108;DHT22;10712;52.944;9.098;2023-09-30T01:16:07;13.30;89.10
21108;DHT22;10712;52.944;9.098;2023-09-30T01:18:36;13.30;89.20
21108;DHT22;10712;52.944;9.098;2023-09-30T01:21:04;13.30;89.30
21108;DHT22;10712;52.944;9.098;2023-09-30T01:23:32;13.20;89.40
21108;DHT22;10712;52.944;9.098;2023-09-30T01:26:07;13.20;89.30
21108;DHT22;10712;52.944;9.098;2023-09-30T01:28:35;13.20;89.30
21108;DHT22;10712;52.944;9.098;2023-09-30T01:31:02;13.20;89.50
21108;DHT22;10712;52.944;9.098;2023-09-30T01:33:28;13.20;89.40
21108;DHT22;10712;52.944;9.098;2023-09-30T01:35:54;13.10;89.30
21108;DHT22;10712;52.944;9.098;2023-09-30T01:38:20;13.10;89.30
21108;DHT22;10712;52.944;9.098;2023-09-30T01:40:47;13.10;89.40
21108;DHT22;10712;52.944;9.098;2023-09-30T01:43:13;13.00;89.80
21108;DHT22;10712;52.944;9.098;2023-09-30T01:45:40;13.10;89.90
21108;DHT22;10712;52.944;9.098;2023-09-30T01:48:06;13.10;89.90
21108;DHT22;10712;52.944;9.098;2023-09-30T01:50:33;13.10;89.90
21108;DHT22;10712;52.944;9.098;2023-09-30T01:52:58;13.10;89.80
21108;DHT22;10712;52.944;9.098;2023-09-30T01:55:24;13.10;89.70
21108;DHT22;10712;52.944;9.098;2023-09-30T01:57:50;13.10;89.70
21108;DHT22;10712;52.944;9.098;2023-09-30T02:00:16;13.10;89.60
21108;DHT22;10712;52.944;9.098;2023-09-30T02:02:42;13.10;89.50
21108;DHT22;10712;52.944;9.098;2023-09-30T02:05:08;13.10;89.50
21108;DHT22;10712;52.944;9.098;2023-09-30T02:07:35;13.10;89.50
21108;DHT22;10712;52.944;9.098;2023-09-30T02:10:00;13.00;89.50
21108;DHT22;10712;52.944;9.098;2023-09-30T02:12:27;13.00;89.50
21108;DHT22;10712;52.944;9.098;2023-09-30T02:14:57;13.00;89.60
21108;DHT22;10712;52.944;9.098;2023-09-30T02:17:23;13.00;89.80
21108;DHT22;10712;52.944;9.098;2023-09-30T02:19:49;13.00;89.90
21108;DHT22;10712;52.944;9.098;2023-09-30T02:22:15;13.00;89.80
21108;DHT22;10712;52.944;9.098;2023-09-30T02:24:41;13.00;89.60
21108;DHT22;10712;52.944;9.098;2023-09-30T02:27:07;12.90;89.70
21108;DHT22;10712;52.944;9.098;2023-09-30T02:29:33;12.90;89.70
21108;DHT22;10712;52.944;9.098;2023-09-30T02:31:59;12.90;89.90
21108;DHT22;10712;52.944;9.098;2023-09-30T02:34:26;12.90;89.80
21108;DHT22;10712;52.944;9.098;2023-09-30T02:36:53;12.90;89.80
21108;DHT22;10712;52.944;9.098;2023-09-30T02:39:21;12.90;89.70
21108;DHT22;10712;52.944;9.098;2023-09-30T02:41:47;12.90;89.90
21108;DHT22;10712;52.944;9.098;2023-09-30T02:44:15;12.90;89.90
21108;DHT22;10712;52.944;9.098;2023-09-30T02:46:41;12.80;89.70
21108;DHT22;10712;52.944;9.098;2023-09-30T02:49:07;12.80;89.80
21108;DHT22;10712;52.944;9.098;2023-09-30T02:51:33;12.80;90.00
21108;DHT22;10712;52.944;9.098;2023-09-30T02:53:59;12.80;90.00
21108;DHT22;10712;52.944;9.098;2023-09-30T02:56:25;12.80;90.10
21108;DHT22;10712;52.944;9.098;2023-09-30T02:58:52;12.80;90.20
21108;DHT22;10712;52.944;9.098;2023-09-30T03:01:18;12.80;90.30
21108;DHT22;10712;52.944;9.098;2023-09-30T03:03:44;12.80;90.30
21108;DHT22;10712;52.944;9.098;2023-09-30T03:06:11;12.80;90.30
21108;DHT22;10712;52.944;9.098;2023-09-30T03:08:37;12.80;90.20
21108;DHT22;10712;52.944;9.098;2023-09-30T03:11:03;12.80;90.30
21108;DHT22;10712;52.944;9.098;2023-09-30T03:13:30;12.80;90.40
21108;DHT22;10712;52.944;9.098;2023-09-30T03:15:56;12.80;90.40
21108;DHT22;10712;52.944;9.098;2023-09-30T03:18:23;12.80;90.40
21108;DHT22;10712;52.944;9.098;2023-09-30T03:20:59;12.80;90.40
21108;DHT22;10712;52.944;9.098;2023-09-30T03:23:29;12.80;90.60
21108;DHT22;10712;52.944;9.098;2023-09-30T03:25:59;12.80;90.70
21108;DHT22;10712;52.944;9.098;2023-09-30T03:28:26;12.90;90.70
21108;DHT22;10712;52.944;9.098;2023-09-30T03:30:52;12.90;90.60
21108;DHT22;10712;52.944;9.098;2023-09-30T03:33:18;12.90;90.60
21108;DHT22;10712;52.944;9.098;2023-09-30T03:35:44;12.90;90.70
21108;DHT22;10712;52.944;9.098;2023-09-30T03:38:11;12.90;90.70
21108;DHT22;10712;52.944;9.098;2023-09-30T03:40:41;12.90;90.80
21108;DHT22;10712;52.944;9.098;2023-09-30T03:43:13;12.90;90.80
21108;DHT22;10712;52.944;9.098;2023-09-30T03:45:40;12.90;90.80
21108;DHT22;10712;52.944;9.098;2023-09-30T03:48:07;12.90;90.70
21108;DHT22;10712;52.944;9.098;2023-09-30T03:50:33;12.90;90.80
21108;DHT22;10712;52.944;9.098;2023-09-30T03:53:02;12.90;90.80
21108;DHT22;10712;52.944;9.098;2023-09-30T03:55:30;12.90;90.80
21108;DHT22;10712;52.944;9.098;2023-09-30T03:57:57;12.90;90.80
21108;DHT22;10712;52.944;9.098;2023-09-30T04:00:23;12.90;90.80
21108;DHT22;10712;52.944;9.098;2023-09-30T04:02:50;12.80;90.70
21108;DHT22;10712;52.944;9.098;2023-09-30T04:05:21;12.80;90.70
21108;DHT22;10712;52.944;9.098;2023-09-30T04:07:55;12.90;90.70
21108;DHT22;10712;52.944;9.098;2023-09-30T04:10:21;12.80;90.70
21108;DHT22;10712;52.944;9.098;2023-09-30T04:12:50;12.80;90.70
21108;DHT22;10712;52.944;9.098;2023-09-30T04:15:18;12.80;90.80
21108;DHT22;10712;52.944;9.098;2023-09-30T04:17:44;12.80;90.80
21108;DHT22;10712;52.944;9.098;2023-09-30T04:20:10;12.80;90.80
21108;DHT22;10712;52.944;9.098;2023-09-30T04:22:42;12.80;90.90
21108;DHT22;10712;52.944;9.098;2023-09-30T04:25:11;12.80;90.90
21108;DHT22;10712;52.944;9.098;2023-09-30T04:27:38;12.80;90.90
21108;DHT22;10712;52.944;9.098;2023-09-30T04:30:04;12.80;91.00
21108;DHT22;10712;52.944;9.098;2023-09-30T04:32:35;12.80;91.00
21108;DHT22;10712;52.944;9.098;2023-09-30T04:35:03;12.80;91.00
21108;DHT22;10712;52.944;9.098;2023-09-30T04:37:30;12.90;91.00
21108;DHT22;10712;52.944;9.098;2023-09-30T04:39:55;12.90;91.00
21108;DHT22;10712;52.944;9.098;2023-09-30T04:42:23;12.90;91.00
21108;DHT22;10712;52.944;9.098;2023-09-30T04:44:52;12.90;91.00
21108;DHT22;10712;52.944;9.098;2023-09-30T04:47:18;12.90;90.90
21108;DHT22;10712;52.944;9.098;2023-09-30T04:49:45;12.90;91.00
21108;DHT22;10712;52.944;9.098;2023-09-30T04:52:10;12.90;91.00
21108;DHT22;10712;52.944;9.098;2023-09-30T04:54:37;12.80;91.00
21108;DHT22;10712;52.944;9.098;2023-09-30T04:57:02;12.90;91.10
21108;DHT22;10712;52.944;9.098;2023-09-30T04:59:28;12.90;91.10
21108;DHT22;10712;52.944;9.098;2023-09-30T05:01:55;12.90;91.20
21108;DHT22;10712;52.944;9.098;2023-09-30T05:04:22;12.90;91.10
21108;DHT22;10712;52.944;9.098;2023-09-30T05:06:49;12.90;91.10
21108;DHT22;10712;52.944;9.098;2023-09-30T05:09:15;12.90;90.90
21108;DHT22;10712;52.944;9.098;2023-09-30T05:11:41;12.90;90.90
21108;DHT22;10712;52.944;9.098;2023-09-30T05:14:07;12.90;90.90
21108;DHT22;10712;52.944;9.098;2023-09-30T05:16:32;12.90;90.90
21108;DHT22;10712;52.944;9.098;2023-09-30T05:18:58;12.90;90.70
21108;DHT22;10712;52.944;9.098;2023-09-30T05:21:24;12.90;90.80
21108;DHT22;10712;52.944;9.098;2023-09-30T05:23:50;12.90;90.90
21108;DHT22;10712;52.944;9.098;2023-09-30T05:26:16;12.90;90.90
21108;DHT22;10712;52.944;9.098;2023-09-30T05:28:42;12.90;91.00
21108;DHT22;10712;52.944;9.098;2023-09-30T05:31:08;12.90;91.00
21108;DHT22;10712;52.944;9.098;2023-09-30T05:33:34;12.90;91.00
21108;DHT22;10712;52.944;9.098;2023-09-30T05:36:01;12.90;90.90
21108;DHT22;10712;52.944;9.098;2023-09-30T05:38:28;12.90;90.90
21108;DHT22;10712;52.944;9.098;2023-09-30T05:40:56;12.90;90.90
21108;DHT22;10712;52.944;9.098;2023-09-30T05:43:24;12.80;91.00
21108;DHT22;10712;52.944;9.098;2023-09-30T05:45:52;12.90;91.10
21108;DHT22;10712;52.944;9.098;2023-09-30T05:48:23;12.90;91.10
21108;DHT22;10712;52.944;9.098;2023-09-30T05:50:49;12.90;90.90
21108;DHT22;10712;52.944;9.098;2023-09-30T05:53:15;12.80;90.80
21108;DHT22;10712;52.944;9.098;2023-09-30T05:55:41;12.80;90.90
21108;DHT22;10712;52.944;9.098;2023-09-30T05:58:13;12.80;91.00
21108;DHT22;10712;52.944;9.098;2023-09-30T06:00:41;12.80;91.10
21108;DHT22;10712;52.944;9.098;2023-09-30T06:03:08;12.80;91.00
21108;DHT22;10712;52.944;9.098;2023-09-30T06:05:39;12.90;90.90
21108;DHT22;10712;52.944;9.098;2023-09-30T06:08:07;12.80;90.90
21108;DHT22;10712;52.944;9.098;2023-09-30T06:10:40;12.80;90.90
21108;DHT22;10712;52.944;9.098;2023-09-30T06:13:12;12.80;90.90
21108;DHT22;10712;52.944;9.098;2023-09-30T06:15:39;12.80;90.90
21108;DHT22;10712;52.944;9.098;2023-09-30T06:18:07;12.80;90.90
21108;DHT22;10712;52.944;9.098;2023-09-30T06:20:35;12.80;91.00
21108;DHT22;10712;52.944;9.098;2023-09-30T06:23:01;12.80;91.00
21108;DHT22;10712;52.944;9.098;2023-09-30T06:25:27;12.80;91.20
21108;DHT22;10712;52.944;9.098;2023-09-30T06:27:54;12.80;91.30
21108;DHT22;10712;52.944;9.098;2023-09-30T06:30:20;12.80;91.40
21108;DHT22;10712;52.944;9.098;2023-09-30T06:32:47;12.80;91.30
21108;DHT22;10712;52.944;9.098;2023-09-30T06:35:13;12.90;91.30
21108;DHT22;10712;52.944;9.098;2023-09-30T06:37:40;12.90;91.40
21108;DHT22;10712;52.944;9.098;2023-09-30T06:40:07;12.90;91.40
21108;DHT22;10712;52.944;9.098;2023-09-30T06:42:35;12.90;91.30
21108;DHT22;10712;52.944;9.098;2023-09-30T06:45:02;12.90;91.30
21108;DHT22;10712;52.944;9.098;2023-09-30T06:47:32;12.90;91.30
21108;DHT22;10712;52.944;9.098;2023-09-30T06:50:12;13.00;91.30
21108;DHT22;10712;52.944;9.098;2023-09-30T06:52:42;13.00;91.40
21108;DHT22;10712;52.944;9.098;2023-09-30T06:55:11;13.00;91.50
21108;DHT22;10712;52.944;9.098;2023-09-30T06:57:40;13.10;91.60
21108;DHT22;10712;52.944;9.098;2023-09-30T07:00:11;13.10;91.50
21108;DHT22;10712;52.944;9.098;2023-09-30T07:02:39;13.10;91.60
21108;DHT22;10712;52.944;9.098;2023-09-30T07:05:12;13.20;91.60
21108;DHT22;10712;52.944;9.098;2023-09-30T07:07:40;13.20;91.60
21108;DHT22;10712;52.944;9.098;2023-09-30T07:10:10;13.20;91.70
21108;DHT22;10712;52.944;9.098;2023-09-30T07:12:37;13.30;91.60
21108;DHT22;10712;52.944;9.098;2023-09-30T07:15:03;13.40;91.60
21108;DHT22;10712;52.944;9.098;2023-09-30T07:17:31;13.40;91.50
21108;DHT22;10712;52.944;9.098;2023-09-30T07:19:58;13.50;91.60
21108;DHT22;10712;52.944;9.098;2023-09-30T07:22:24;13.50;91.60
21108;DHT22;10712;52.944;9.098;2023-09-30T07:24:51;13.60;91.60
21108;DHT22;10712;52.944;9.098;2023-09-30T07:27:17;13.60;91.50
21108;DHT22;10712;52.944;9.098;2023-09-30T07:29:44;13.60;91.40
21108;DHT22;10712;52.944;9.098;2023-09-30T07:32:10;13.60;91.40
21108;DHT22;10712;52.944;9.098;2023-09-30T07:34:35;13.70;91.40
21108;DHT22;10712;52.944;9.098;2023-09-30T07:37:01;13.70;91.30
21108;DHT22;10712;52.944;9.098;2023-09-30T07:39:27;13.80;91.20
21108;DHT22;10712;52.944;9.098;2023-09-30T07:41:53;13.80;91.20
21108;DHT22;10712;52.944;9.098;2023-09-30T07:44:18;13.80;91.20
21108;DHT22;10712;52.944;9.098;2023-09-30T07:46:44;13.90;91.10
21108;DHT22;10712;52.944;9.098;2023-09-30T07:49:10;13.90;91.10
21108;DHT22;10712;52.944;9.098;2023-09-30T07:51:36;13.90;91.10
21108;DHT22;10712;52.944;9.098;2023-09-30T07:54:05;14.00;91.10
21108;DHT22;10712;52.944;9.098;2023-09-30T07:56:31;14.00;91.20
21108;DHT22;10712;52.944;9.098;2023-09-30T07:58:57;14.10;91.20
21108;DHT22;10712;52.944;9.098;2023-09-30T08:01:23;14.10;91.20
21108;DHT22;10712;52.944;9.098;2023-09-30T08:03:48;14.20;91.10
21108;DHT22;10712;52.944;9.098;2023-09-30T08:06:14;14.20;91.00
21108;DHT22;10712;52.944;9.098;2023-09-30T08:08:40;14.20;90.80
21108;DHT22;10712;52.944;9.098;2023-09-30T08:11:06;14.30;90.70
21108;DHT22;10712;52.944;9.098;2023-09-30T08:13:33;14.30;90.70
21108;DHT22;10712;52.944;9.098;2023-09-30T08:15:59;14.30;90.60
21108;DHT22;10712;52.944;9.098;2023-09-30T08:18:25;14.40;90.60
21108;DHT22;10712;52.944;9.098;2023-09-30T08:20:51;14.40;90.60
21108;DHT22;10712;52.944;9.098;2023-09-30T08:23:16;14.50;90.50
21108;DHT22;10712;52.944;9.098;2023-09-30T08:25:42;14.50;90.50
21108;DHT22;10712;52.944;9.098;2023-09-30T08:28:08;14.60;90.40
21108;DHT22;10712;52.944;9.098;2023-09-30T08:30:36;14.60;90.40
21108;DHT22;10712;52.944;9.098;2023-09-30T08:33:02;14.60;90.30
21108;DHT22;10712;52.944;9.098;2023-09-30T08:35:38;14.70;90.10
21108;DHT22;10712;52.944;9.098;2023-09-30T08:38:04;14.70;90.10
21108;DHT22;10712;52.944;9.098;2023-09-30T08:40:31;14.80;89.90
21108;DHT22;10712;52.944;9.098;2023-09-30T08:42:57;14.80;89.70
21108;DHT22;10712;52.944;9.098;2023-09-30T08:45:23;14.90;89.50
21108;DHT22;10712;52.944;9.098;2023-09-30T08:47:53;14.90;89.30
21108;DHT22;10712;52.944;9.098;2023-09-30T08:50:20;14.90;89.20
21108;DHT22;10712;52.944;9.098;2023-09-30T08:52:46;15.00;89.20
21108;DHT22;10712;52.944;9.098;2023-09-30T08:55:13;15.10;89.10
21108;DHT22;10712;52.944;9.098;2023-09-30T08:57:40;15.10;88.90
21108;DHT22;10712;52.944;9.098;2023-09-30T09:00:12;15.20;88.80
21108;DHT22;10712;52.944;9.098;2023-09-30T09:02:39;15.20;88.80
21108;DHT22;10712;52.944;9.098;2023-09-30T09:05:06;15.30;88.70
21108;DHT22;10712;52.944;9.098;2023-09-30T09:07:33;15.30;88.60
21108;DHT22;10712;52.944;9.098;2023-09-30T09:10:10;15.30;88.40
21108;DHT22;10712;52.944;9.098;2023-09-30T09:12:39;15.40;88.50
21108;DHT22;10712;52.944;9.098;2023-09-30T09:15:07;15.50;88.50
21108;DHT22;10712;52.944;9.098;2023-09-30T09:17:45;15.50;88.60
21108;DHT22;10712;52.944;9.098;2023-09-30T09:20:16;15.50;88.50
21108;DHT22;10712;52.944;9.098;2023-09-30T09:22:51;15.60;88.30
21108;DHT22;10712;52.944;9.098;2023-09-30T09:25:23;15.60;88.40
21108;DHT22;10712;52.944;9.098;2023-09-30T09:27:53;15.70;88.40
21108;DHT22;10712;52.944;9.098;2023-09-30T09:30:24;15.70;88.10
21108;DHT22;10712;52.944;9.098;2023-09-30T09:33:03;15.80;88.00
21108;DHT22;10712;52.944;9.098;2023-09-30T09:35:31;15.90;88.00
21108;DHT22;10712;52.944;9.098;2023-09-30T09:38:06;15.90;87.90
21108;DHT22;10712;52.944;9.098;2023-09-30T09:40:33;16.00;87.90
21108;DHT22;10712;52.944;9.098;2023-09-30T09:43:01;16.00;87.50
21108;DHT22;10712;52.944;9.098;2023-09-30T09:45:34;16.10;87.40
21108;DHT22;10712;52.944;9.098;2023-09-30T09:48:01;16.10;87.20
21108;DHT22;10712;52.944;9.098;2023-09-30T09:50:30;16.20;87.10
21108;DHT22;10712;52.944;9.098;2023-09-30T09:52:59;16.30;86.70
21108;DHT22;10712;52.944;9.098;2023-09-30T09:55:27;16.30;86.50
21108;DHT22;10712;52.944;9.098;2023-09-30T09:57:53;16.40;86.10
21108;DHT22;10712;52.944;9.098;2023-09-30T10:00:24;16.50;85.60
21108;DHT22;10712;52.944;9.098;2023-09-30T10:02:52;16.50;85.40
21108;DHT22;10712;52.944;9.098;2023-09-30T10:05:19;16.50;85.00
21108;DHT22;10712;52.944;9.098;2023-09-30T10:08:00;16.60;84.80
21108;DHT22;10712;52.944;9.098;2023-09-30T10:10:29;16.60;84.30
21108;DHT22;10712;52.944;9.098;2023-09-30T10:13:00;16.70;84.10
21108;DHT22;10712;52.944;9.098;2023-09-30T10:20:31;16.80;84.00
21108;DHT22;10712;52.944;9.098;2023-09-30T10:23:23;16.90;83.60
21108;DHT22;10712;52.944;9.098;2023-09-30T10:25:55;16.90;83.00
21108;DHT22;10712;52.944;9.098;2023-09-30T10:28:46;17.00;82.70
21108;DHT22;10712;52.944;9.098;2023-09-30T10:31:19;17.00;82.10
21108;DHT22;10712;52.944;9.098;2023-09-30T10:36:36;17.10;82.10
21108;DHT22;10712;52.944;9.098;2023-09-30T10:39:04;17.20;81.50
21108;DHT22;10712;52.944;9.098;2023-09-30T10:46:51;17.30;79.50
21108;DHT22;10712;52.944;9.098;2023-09-30T10:51:53;17.40;79.10
21108;DHT22;10712;52.944;9.098;2023-09-30T10:54:27;17.40;79.20
21108;DHT22;10712;52.944;9.098;2023-09-30T10:56:54;17.40;78.40
21108;DHT22;10712;52.944;9.098;2023-09-30T10:59:25;17.50;78.90
21108;DHT22;10712;52.944;9.098;2023-09-30T11:01:53;17.50;79.30
21108;DHT22;10712;52.944;9.098;2023-09-30T11:04:19;17.60;79.20
21108;DHT22;10712;52.944;9.098;2023-09-30T11:06:46;17.60;79.00
21108;DHT22;10712;52.944;9.098;2023-09-30T11:09:17;17.60;79.10
21108;DHT22;10712;52.944;9.098;2023-09-30T11:11:45;17.70;78.40
21108;DHT22;10712;52.944;9.098;2023-09-30T11:14:24;17.70;78.50
21108;DHT22;10712;52.944;9.098;2023-09-30T11:16:57;17.70;78.50
21108;DHT22;10712;52.944;9.098;2023-09-30T11:19:25;17.70;78.40
21108;DHT22;10712;52.944;9.098;2023-09-30T11:21:53;17.80;78.50
21108;DHT22;10712;52.944;9.098;2023-09-30T11:24:21;17.80;78.70
21108;DHT22;10712;52.944;9.098;2023-09-30T11:26:47;17.90;78.70
21108;DHT22;10712;52.944;9.098;2023-09-30T11:29:18;17.90;77.90
21108;DHT22;10712;52.944;9.098;2023-09-30T11:31:46;18.00;77.90
21108;DHT22;10712;52.944;9.098;2023-09-30T11:34:15;18.00;77.70
21108;DHT22;10712;52.944;9.098;2023-09-30T11:36:52;18.00;77.00
21108;DHT22;10712;52.944;9.098;2023-09-30T11:41:49;18.00;76.10
21108;DHT22;10712;52.944;9.098;2023-09-30T11:44:15;18.00;76.60
21108;DHT22;10712;52.944;9.098;2023-09-30T11:46:59;18.00;76.20
21108;DHT22;10712;52.944;9.098;2023-09-30T11:49:39;18.00;76.70
21108;DHT22;10712;52.944;9.098;2023-09-30T11:52:06;18.00;76.90
21108;DHT22;10712;52.944;9.098;2023-09-30T11:54:41;18.00;76.60
21108;DHT22;10712;52.944;9.098;2023-09-30T11:57:16;18.00;76.70
21108;DHT22;10712;52.944;9.098;2023-09-30T11:59:44;18.00;76.60
21108;DHT22;10712;52.944;9.098;2023-09-30T12:02:20;18.00;76.60
21108;DHT22;10712;52.944;9.098;2023-09-30T12:04:46;18.00;76.90
21108;DHT22;10712;52.944;9.098;2023-09-30T12:07:15;17.90;76.00
21108;DHT22;10712;52.944;9.098;2023-09-30T12:09:41;17.90;76.40
21108;DHT22;10712;52.944;9.098;2023-09-30T12:12:07;18.00;76.70
21108;DHT22;10712;52.944;9.098;2023-09-30T12:14:34;18.00;76.10
21108;DHT22;10712;52.944;9.098;2023-09-30T12:17:00;17.90;75.30
21108;DHT22;10712;52.944;9.098;2023-09-30T12:19:26;18.00;75.00
21108;DHT22;10712;52.944;9.098;2023-09-30T12:21:52;18.00;74.20
21108;DHT22;10712;52.944;9.098;2023-09-30T12:24:18;18.10;73.50
21108;DHT22;10712;52.944;9.098;2023-09-30T12:26:50;18.10;73.20
21108;DHT22;10712;52.944;9.098;2023-09-30T12:29:18;18.10;73.10
21108;DHT22;10712;52.944;9.098;2023-09-30T12:31:48;18.10;73.40
21108;DHT22;10712;52.944;9.098;2023-09-30T12:34:15;18.10;73.60
21108;DHT22;10712;52.944;9.098;2023-09-30T12:36:42;18.10;73.90
21108;DHT22;10712;52.944;9.098;2023-09-30T12:39:08;18.20;74.60
21108;DHT22;10712;52.944;9.098;2023-09-30T12:41:38;18.20;74.00
21108;DHT22;10712;52.944;9.098;2023-09-30T12:44:09;18.20;73.90
21108;DHT22;10712;52.944;9.098;2023-09-30T12:46:36;18.20;74.30
21108;DHT22;10712;52.944;9.098;2023-09-30T12:49:05;18.30;73.80
21108;DHT22;10712;52.944;9.098;2023-09-30T12:51:32;18.30;74.30
21108;DHT22;10712;52.944;9.098;2023-09-30T12:53:59;18.30;74.40
21108;DHT22;10712;52.944;9.098;2023-09-30T12:56:26;18.30;74.10
21108;DHT22;10712;52.944;9.098;2023-09-30T12:58:55;18.30;74.00
21108;DHT22;10712;52.944;9.098;2023-09-30T13:01:21;18.30;73.40
21108;DHT22;10712;52.944;9.098;2023-09-30T13:03:48;18.30;73.30
21108;DHT22;10712;52.944;9.098;2023-09-30T13:06:15;18.30;73.00
21108;DHT22;10712;52.944;9.098;2023-09-30T13:08:41;18.30;73.30
21108;DHT22;10712;52.944;9.098;2023-09-30T13:11:08;18.30;72.60
21108;DHT22;10712;52.944;9.098;2023-09-30T13:13:34;18.40;72.40
21108;DHT22;10712;52.944;9.098;2023-09-30T13:16:01;18.40;72.70
21108;DHT22;10712;52.944;9.098;2023-09-30T13:18:27;18.40;72.20
21108;DHT22;10712;52.944;9.098;2023-09-30T13:20:53;18.50;72.20
21108;DHT22;10712;52.944;9.098;2023-09-30T13:23:20;18.50;72.70
21108;DHT22;10712;52.944;9.098;2023-09-30T13:25:46;18.50;72.70
21108;DHT22;10712;52.944;9.098;2023-09-30T13:28:13;18.60;73.00
21108;DHT22;10712;52.944;9.098;2023-09-30T13:30:39;18.60;72.90
21108;DHT22;10712;52.944;9.098;2023-09-30T13:33:05;18.60;72.80
21108;DHT22;10712;52.944;9.098;2023-09-30T13:35:31;18.60;72.90
21108;DHT22;10712;52.944;9.098;2023-09-30T13:37:57;18.70;71.80
21108;DHT22;10712;52.944;9.098;2023-09-30T13:40:23;18.70;71.60
21108;DHT22;10712;52.944;9.098;2023-09-30T13:42:49;18.60;71.90
21108;DHT22;10712;52.944;9.098;2023-09-30T13:45:15;18.60;72.30
21108;DHT22;10712;52.944;9.098;2023-09-30T13:47:44;18.50;72.60
21108;DHT22;10712;52.944;9.098;2023-09-30T13:50:10;18.50;72.90
21108;DHT22;10712;52.944;9.098;2023-09-30T13:52:36;18.40;72.70
21108;DHT22;10712;52.944;9.098;2023-09-30T13:55:02;18.40;73.00
21108;DHT22;10712;52.944;9.098;2023-09-30T13:57:30;18.30;73.20
21108;DHT22;10712;52.944;9.098;2023-09-30T13:59:56;18.20;72.80
21108;DHT22;10712;52.944;9.098;2023-09-30T14:02:22;18.20;73.30
21108;DHT22;10712;52.944;9.098;2023-09-30T14:04:48;18.10;73.50
21108;DHT22;10712;52.944;9.098;2023-09-30T14:07:14;18.10;73.50
21108;DHT22;10712;52.944;9.098;2023-09-30T14:09:43;18.10;74.00
21108;DHT22;10712;52.944;9.098;2023-09-30T14:12:09;18.00;74.40
21108;DHT22;10712;52.944;9.098;2023-09-30T14:14:35;18.10;74.80
21108;DHT22;10712;52.944;9.098;2023-09-30T14:17:01;18.00;75.20
21108;DHT22;10712;52.944;9.098;2023-09-30T14:19:34;18.10;75.60
21108;DHT22;10712;52.944;9.098;2023-09-30T14:22:00;18.00;75.50
21108;DHT22;10712;52.944;9.098;2023-09-30T14:24:26;18.00;75.80
21108;DHT22;10712;52.944;9.098;2023-09-30T14:26:52;18.00;75.90
21108;DHT22;10712;52.944;9.098;2023-09-30T14:29:17;18.00;75.90
21108;DHT22;10712;52.944;9.098;2023-09-30T14:31:43;18.00;75.80
21108;DHT22;10712;52.944;9.098;2023-09-30T14:34:09;17.90;75.80
21108;DHT22;10712;52.944;9.098;2023-09-30T14:36:35;17.90;75.80
21108;DHT22;10712;52.944;9.098;2023-09-30T14:39:01;17.90;76.00
21108;DHT22;10712;52.944;9.098;2023-09-30T14:41:27;17.90;76.30
21108;DHT22;10712;52.944;9.098;2023-09-30T14:43:52;17.90;76.20
21108;DHT22;10712;52.944;9.098;2023-09-30T14:46:18;17.80;76.30
21108;DHT22;10712;52.944;9.098;2023-09-30T14:48:45;17.80;76.40
21108;DHT22;10712;52.944;9.098;2023-09-30T14:51:11;17.80;76.50
21108;DHT22;10712;52.944;9.098;2023-09-30T14:53:37;17.80;76.60
21108;DHT22;10712;52.944;9.098;2023-09-30T14:56:03;17.90;76.80
21108;DHT22;10712;52.944;9.098;2023-09-30T14:58:31;17.90;76.90
21108;DHT22;10712;52.944;9.098;2023-09-30T15:00:57;17.90;77.10
21108;DHT22;10712;52.944;9.098;2023-09-30T15:03:23;17.90;77.10
21108;DHT22;10712;52.944;9.098;2023-09-30T15:05:57;17.90;77.20
21108;DHT22;10712;52.944;9.098;2023-09-30T15:08:24;17.80;77.40
21108;DHT22;10712;52.944;9.098;2023-09-30T15:10:50;17.90;77.50
21108;DHT22;10712;52.944;9.098;2023-09-30T15:13:16;17.90;77.70
21108;DHT22;10712;52.944;9.098;2023-09-30T15:15:41;17.90;77.60
21108;DHT22;10712;52.944;9.098;2023-09-30T15:18:07;17.90;77.30
21108;DHT22;10712;52.944;9.098;2023-09-30T15:20:38;17.80;77.00
21108;DHT22;10712;52.944;9.098;2023-09-30T15:23:07;17.80;77.00
21108;DHT22;10712;52.944;9.098;2023-09-30T15:25:33;17.80;76.80
21108;DHT22;10712;52.944;9.098;2023-09-30T15:27:59;17.80;77.10
21108;DHT22;10712;52.944;9.098;2023-09-30T15:30:25;17.80;77.10
21108;DHT22;10712;52.944;9.098;2023-09-30T15:32:51;17.80;76.90
21108;DHT22;10712;52.944;9.098;2023-09-30T15:35:16;17.80;76.70
21108;DHT22;10712;52.944;9.098;2023-09-30T15:37:42;17.80;76.80
21108;DHT22;10712;52.944;9.098;2023-09-30T15:40:08;17.80;76.60
21108;DHT22;10712;52.944;9.098;2023-09-30T15:42:34;17.80;76.10
21108;DHT22;10712;52.944;9.098;2023-09-30T15:45:00;17.80;75.80
21108;DHT22;10712;52.944;9.098;2023-09-30T15:47:25;17.80;75.80
21108;DHT22;10712;52.944;9.098;2023-09-30T15:49:51;17.80;75.80
21108;DHT22;10712;52.944;9.098;2023-09-30T15:52:17;17.80;75.90